Time;durP1;ratioP1;P1;durP2;ratioP2;P2;SDS_P1;SDS_P2;PMS_P1;PMS_P2;Temp;Humidity;BMP_temperature;BMP_pressure;BME280_temperature;BME280_humidity;BME280_pressure;Samples;Min_cycle;Max_cycle;Signal;HPM_P1;HPM_P2
2021/07/11 00:00:11;;;;;;;;;2.00;1.00;;;;;26.45;42.60;101532.56;5080964;28;45352;-73
2021/07/11 00:02:36;;;;;;;;;4.00;4.00;;;;;26.57;42.49;101548.84;5081413;28;45309;-73
2021/07/11 00:05:05;;;;;;;;;2.75;2.75;;;;;26.68;42.65;101568.84;5080963;28;45426;-73
2021/07/11 00:07:30;;;;;;;;;3.25;3.25;;;;;26.67;42.29;101575.22;5080850;28;45576;-73
2021/07/11 00:09:59;;;;;;;;;2.75;2.75;;;;;26.57;42.57;101554.19;5081231;28;45320;-73
2021/07/11 00:12:26;;;;;;;;;3.00;3.00;;;;;26.68;42.60;101573.38;5081041;28;45430;-73
2021/07/11 00:14:53;;;;;;;;;4.50;3.25;;;;;26.56;42.58;101551.72;5080578;28;45181;-73
2021/07/11 00:17:18;;;;;;;;;2.00;2.00;;;;;26.52;42.54;101548.63;5080814;28;46157;-73
2021/07/11 00:19:44;;;;;;;;;2.00;2.00;;;;;26.61;42.26;101571.50;5080554;28;45484;-73
2021/07/11 00:22:09;;;;;;;;;3.50;2.50;;;;;26.62;42.54;101566.97;5081067;28;45455;-73
2021/07/11 00:24:39;;;;;;;;;2.25;2.25;;;;;26.55;42.59;101553.56;5081021;28;45305;-73
2021/07/11 00:27:04;;;;;;;;;2.00;2.00;;;;;26.65;42.18;101560.44;5080608;28;45285;-73
2021/07/11 00:29:30;;;;;;;;;3.00;1.75;;;;;26.63;42.42;101558.78;5078989;28;45301;-73
2021/07/11 00:31:55;;;;;;;;;2.25;2.25;;;;;26.58;42.25;101553.19;5061168;27;45267;-73
2021/07/11 00:34:21;;;;;;;;;4.00;2.00;;;;;26.61;42.59;101543.97;5058500;28;45255;-73
2021/07/11 00:36:46;;;;;;;;;1.25;1.25;;;;;26.61;42.29;101546.63;5065760;28;45622;-72
2021/07/11 00:39:12;;;;;;;;;2.00;2.00;;;;;26.56;42.54;101541.88;5068077;28;45491;-73
2021/07/11 00:41:38;;;;;;;;;2.00;2.00;;;;;26.48;42.14;101518.84;5066848;28;45691;-73
2021/07/11 00:44:04;;;;;;;;;3.75;3.75;;;;;26.64;42.18;101546.25;5080278;28;45234;-72
2021/07/11 00:46:30;;;;;;;;;1.25;1.25;;;;;26.54;42.06;101527.09;5078968;28;47308;-73
2021/07/11 00:48:55;;;;;;;;;4.25;2.25;;;;;26.44;42.60;101509.56;5080280;28;45354;-73
2021/07/11 00:51:22;;;;;;;;;2.00;1.00;;;;;26.66;42.29;101546.03;5080703;28;45782;-73
2021/07/11 00:53:52;;;;;;;;;2.50;2.50;;;;;26.59;42.57;101524.66;5080641;28;45361;-73
2021/07/11 00:56:18;;;;;;;;;1.25;1.25;;;;;26.65;42.29;101542.53;5080382;28;45278;-73
2021/07/11 00:58:45;;;;;;;;;1.50;1.50;;;;;26.64;42.40;101543.59;5080055;28;45347;-73
2021/07/11 01:01:16;;;;;;;;;3.75;3.75;;;;;26.62;42.32;101532.28;5080461;28;45437;-73
2021/07/11 01:03:47;;;;;;;;;3.50;1.25;;;;;26.53;42.41;101523.59;5079967;28;45448;-73
2021/07/11 01:06:16;;;;;;;;;2.00;2.00;;;;;26.58;42.50;101525.66;5080327;28;46217;-72
2021/07/11 01:08:54;;;;;;;;;2.50;1.75;;;;;26.54;42.21;101527.94;5079981;28;45282;-73
2021/07/11 01:11:23;;;;;;;;;2.25;1.50;;;;;26.55;42.44;101526.06;5080400;28;45248;-73
2021/07/11 01:13:50;;;;;;;;;1.00;1.00;;;;;26.59;42.31;101522.00;5080017;28;45449;-72
2021/07/11 01:16:21;;;;;;;;;2.00;2.00;;;;;26.61;42.39;101531.47;5079858;28;45255;-73
2021/07/11 01:18:47;;;;;;;;;2.00;2.00;;;;;26.50;42.77;101505.31;5079738;28;45424;-73
2021/07/11 01:21:16;;;;;;;;;2.00;2.00;;;;;26.57;42.40;101516.84;5079877;28;45280;-73
2021/07/11 01:24:05;;;;;;;;;2.00;2.00;;;;;26.65;42.11;101526.53;5079611;28;45212;-73
2021/07/11 01:26:33;;;;;;;;;2.75;2.75;;;;;26.57;42.18;101508.84;5079794;28;45587;-73
2021/07/11 01:28:59;;;;;;;;;2.25;2.25;;;;;26.60;41.99;101504.94;5079580;28;45333;-73
2021/07/11 01:31:26;;;;;;;;;3.00;1.50;;;;;26.60;42.43;101513.78;5063895;28;45364;-73
2021/07/11 01:33:52;;;;;;;;;2.00;2.00;;;;;26.64;42.43;101522.22;5059475;28;45248;-73
2021/07/11 01:36:20;;;;;;;;;2.00;2.00;;;;;26.49;42.46;101501.00;5060368;28;45255;-73
2021/07/11 01:38:47;;;;;;;;;3.00;3.00;;;;;26.58;42.35;101512.34;5069177;28;45292;-73
2021/07/11 01:41:14;;;;;;;;;2.00;2.00;;;;;26.60;42.06;101519.13;5061142;28;45441;-73
2021/07/11 01:43:42;;;;;;;;;2.00;2.00;;;;;26.43;42.17;101494.56;5088821;27;45268;-73
2021/07/11 01:46:09;;;;;;;;;2.00;2.00;;;;;26.50;42.42;101497.28;5081324;28;45647;-73
2021/07/11 01:48:37;;;;;;;;;1.50;1.50;;;;;26.55;42.44;101504.72;5083183;28;45366;-73
2021/07/11 01:51:03;;;;;;;;;3.50;2.00;;;;;26.63;42.42;101516.06;5083299;27;45336;-73
2021/07/11 01:53:33;;;;;;;;;2.00;2.00;;;;;26.59;42.66;101512.16;5083253;28;45248;-73
2021/07/11 01:55:59;;;;;;;;;3.25;3.00;;;;;26.52;42.36;101492.59;5081845;28;46376;-73
2021/07/11 01:58:25;;;;;;;;;1.50;1.50;;;;;26.63;42.24;101505.38;5082475;28;45394;-73
2021/07/11 02:00:53;;;;;;;;;2.00;2.00;;;;;26.55;42.59;101486.84;5083108;28;45328;-73
2021/07/11 02:03:21;;;;;;;;;4.00;3.00;;;;;26.59;42.17;101497.97;5083310;28;45340;-73
2021/07/11 02:05:48;;;;;;;;;2.00;2.00;;;;;26.61;42.16;101506.59;5082504;28;46778;-73
2021/07/11 02:08:15;;;;;;;;;2.00;2.00;;;;;26.63;42.19;101509.91;5080853;28;45770;-73
2021/07/11 02:10:44;;;;;;;;;3.00;3.00;;;;;26.52;42.47;101493.41;5083059;28;45366;-73
2021/07/11 02:13:27;;;;;;;;;1.75;1.75;;;;;26.56;42.33;101501.03;5098729;27;45471;-73
2021/07/11 02:15:57;;;;;;;;;2.00;2.00;;;;;26.62;42.13;101508.28;5082720;28;47257;-73
2021/07/11 02:18:27;;;;;;;;;2.00;2.00;;;;;26.59;42.24;101498.81;5082709;27;45225;-73
2021/07/11 02:20:54;;;;;;;;;2.00;2.00;;;;;26.61;42.34;101512.78;5082971;28;45314;-73
2021/07/11 02:23:24;;;;;;;;;1.50;1.50;;;;;26.50;42.32;101484.78;5082645;28;45480;-73
2021/07/11 02:25:52;;;;;;;;;3.00;3.00;;;;;26.63;42.68;101504.56;5083015;28;45439;-73
2021/07/11 02:28:20;;;;;;;;;3.50;3.50;;;;;26.50;42.35;101490.13;5082371;28;45330;-73
2021/07/11 02:30:54;;;;;;;;;4.00;3.00;;;;;26.52;41.84;101501.41;5073016;28;45271;-73
2021/07/11 02:33:37;;;;;;;;;3.25;3.25;;;;;26.58;42.06;101507.00;5060876;28;45708;-73
2021/07/11 02:36:12;;;;;;;;;2.00;2.00;;;;;26.56;42.52;101498.38;5062343;28;45342;-73
2021/07/11 02:38:49;;;;;;;;;1.75;1.75;;;;;26.61;42.57;101493.25;5062424;28;45362;-73
2021/07/11 02:41:16;;;;;;;;;2.00;2.00;;;;;26.50;42.30;101489.28;5064079;28;45355;-73
2021/07/11 02:43:45;;;;;;;;;2.25;2.25;;;;;26.59;42.19;101498.81;5082480;28;45227;-73
2021/07/11 02:46:14;;;;;;;;;2.75;2.00;;;;;26.58;42.31;101496.31;5082367;28;45445;-74
2021/07/11 02:48:41;;;;;;;;;1.00;1.00;;;;;26.53;42.08;101496.91;5079334;28;45421;-73
2021/07/11 02:51:09;;;;;;;;;2.00;2.00;;;;;26.55;42.32;101492.19;5082363;28;45223;-73
2021/07/11 02:53:35;;;;;;;;;1.75;1.75;;;;;26.50;42.41;101489.28;5097782;27;45557;-73
2021/07/11 02:56:02;;;;;;;;;5.00;3.00;;;;;26.40;42.04;101478.94;5081786;28;45541;-73
2021/07/11 02:58:30;;;;;;;;;2.50;2.50;;;;;26.57;42.36;101508.84;5082142;28;45397;-73
2021/07/11 03:00:56;;;;;;;;;1.00;1.00;;;;;26.49;42.65;101490.31;5082334;28;45293;-73
2021/07/11 03:03:23;;;;;;;;;5.00;3.00;;;;;26.60;42.43;101519.13;5080796;28;45539;-73
2021/07/11 03:05:49;;;;;;;;;1.25;1.25;;;;;26.58;42.23;101521.16;5080450;28;47107;-73
2021/07/11 03:08:14;;;;;;;;;1.25;1.25;;;;;26.43;41.90;101494.56;5081764;28;45325;-73
2021/07/11 03:10:41;;;;;;;;;1.75;1.75;;;;;26.46;42.67;101499.53;5082307;28;45431;-73
2021/07/11 03:13:07;;;;;;;;;1.00;1.00;;;;;26.53;42.32;101502.25;5082328;28;45357;-73
2021/07/11 03:15:33;;;;;;;;;2.00;1.00;;;;;26.58;42.29;101515.00;5077836;28;48157;-73
2021/07/11 03:17:59;;;;;;;;;2.00;2.00;;;;;26.59;42.35;101516.66;5081889;28;45638;-73
2021/07/11 03:20:27;;;;;;;;;2.25;2.25;;;;;26.59;42.34;101520.16;5081110;28;45367;-72
2021/07/11 03:22:55;;;;;;;;;1.75;1.75;;;;;26.40;42.06;101487.78;5078738;28;45457;-72
2021/07/11 03:25:21;;;;;;;;;1.00;1.00;;;;;26.47;42.27;101495.84;5081604;28;45715;-73
2021/07/11 03:27:48;;;;;;;;;2.00;2.00;;;;;26.51;42.43;101513.13;5081829;28;45264;-73
2021/07/11 03:30:17;;;;;;;;;2.50;2.50;;;;;26.50;42.43;101503.47;5075831;28;45451;-73
2021/07/11 03:32:45;;;;;;;;;2.00;2.00;;;;;26.60;42.16;101526.28;5061459;28;45411;-73
2021/07/11 03:35:14;;;;;;;;;1.00;1.00;;;;;26.58;41.92;101523.84;5080024;28;45677;-73
2021/07/11 03:37:42;;;;;;;;;2.00;2.00;;;;;26.58;42.25;101525.66;5081163;28;45271;-73
2021/07/11 03:40:09;;;;;;;;;1.75;1.75;;;;;26.58;42.15;101526.50;5061640;28;45299;-73
2021/07/11 03:42:42;;;;;;;;;3.25;2.00;;;;;26.45;42.59;101502.38;5074177;28;45495;-73
2021/07/11 03:45:10;;;;;;;;;1.25;1.25;;;;;26.56;42.05;101522.38;5071212;28;45670;-73
2021/07/11 03:47:42;;;;;;;;;2.00;2.00;;;;;26.52;41.98;101525.44;5060529;28;45257;-73
2021/07/11 03:50:11;;;;;;;;;1.25;1.25;;;;;26.51;42.00;101537.13;5061068;28;45212;-73
2021/07/11 03:52:43;;;;;;;;;2.00;2.00;;;;;26.52;41.94;101535.28;5060929;28;45530;-73
2021/07/11 03:55:10;;;;;;;;;1.75;1.75;;;;;26.48;42.31;101534.03;5061333;28;46074;-73
2021/07/11 03:57:37;;;;;;;;;1.75;1.75;;;;;26.46;42.22;101531.56;5059262;28;45330;-73
2021/07/11 04:00:04;;;;;;;;;2.00;2.00;;;;;26.58;42.19;101547.84;5060778;28;45444;-73
2021/07/11 04:02:32;;;;;;;;;2.33;2.00;;;;;26.50;42.49;101534.66;5060844;28;45190;-73
2021/07/11 04:04:59;;;;;;;;;1.00;1.00;;;;;26.50;42.50;101521.31;5060528;28;46136;-73
2021/07/11 04:07:26;;;;;;;;;1.67;1.67;;;;;26.55;42.07;101539.41;5059039;28;45425;-73
2021/07/11 04:09:54;;;;;;;;;2.00;2.00;;;;;26.56;41.97;101549.06;5060386;28;45334;-72
2021/07/11 04:12:20;;;;;;;;;1.00;1.00;;;;;26.54;41.95;101543.09;5060761;28;45166;-72
2021/07/11 04:14:45;;;;;;;;;1.67;1.67;;;;;26.52;42.27;101537.94;5060749;28;46287;-73
2021/07/11 04:17:12;;;;;;;;;1.00;1.00;;;;;26.52;42.03;101538.78;5059476;28;45196;-72
2021/07/11 04:19:43;;;;;;;;;1.00;1.00;;;;;26.52;42.33;101530.75;5061070;28;45301;-73
2021/07/11 04:22:12;;;;;;;;;3.00;2.00;;;;;26.57;42.14;101546.19;5076222;28;45498;-73
2021/07/11 04:24:40;;;;;;;;;2.00;2.00;;;;;26.59;42.28;101548.69;5060333;28;46366;-73
2021/07/11 04:27:07;;;;;;;;;2.00;1.00;;;;;26.51;42.35;101547.81;5058602;28;45358;-73
2021/07/11 04:29:33;;;;;;;;;4.00;4.00;;;;;26.45;42.00;101537.06;5064078;28;45268;-73
2021/07/11 04:32:00;;;;;;;;;2.33;2.33;;;;;26.57;42.42;101553.41;5060606;28;45321;-73
2021/07/11 04:34:34;;;;;;;;;1.50;1.50;;;;;26.48;41.99;101544.69;5060101;28;45442;-73
2021/07/11 04:37:04;;;;;;;;;1.00;1.00;;;;;26.49;42.28;101549.03;5067493;28;45244;-73
2021/07/11 04:39:30;;;;;;;;;1.00;1.00;;;;;26.57;42.23;101561.41;5064664;28;45470;-73
2021/07/11 04:41:56;;;;;;;;;1.00;1.00;;;;;26.49;42.27;101551.69;5069395;28;45383;-73
2021/07/11 04:44:27;;;;;;;;;1.25;1.25;;;;;26.55;42.45;101560.75;5080257;28;46088;-73
2021/07/11 04:46:53;;;;;;;;;2.00;2.00;;;;;26.46;42.15;101546.75;5080697;28;45244;-73
2021/07/11 04:49:18;;;;;;;;;1.33;1.33;;;;;26.51;42.18;101558.50;5080387;28;45420;-73
2021/07/11 04:51:44;;;;;;;;;1.00;1.00;;;;;26.45;42.28;101543.25;5080563;28;45167;-73
2021/07/11 04:54:09;;;;;;;;;1.00;1.00;;;;;26.48;42.24;101550.03;5080424;28;45885;-73
2021/07/11 04:56:36;;;;;;;;;1.75;1.75;;;;;26.53;42.41;101555.63;5080701;28;45322;-73
2021/07/11 04:59:02;;;;;;;;;1.00;1.00;;;;;26.41;42.23;101541.97;5078387;28;45388;-73
2021/07/11 05:01:28;;;;;;;;;1.00;1.00;;;;;26.55;42.53;101574.91;5080176;28;45500;-73
2021/07/11 05:03:54;;;;;;;;;0.50;0.50;;;;;26.51;42.42;101558.50;5080514;28;46303;-73
2021/07/11 05:06:20;;;;;;;;;1.67;1.67;;;;;26.54;42.00;101569.78;5080508;28;45187;-73
2021/07/11 05:08:46;;;;;;;;;2.00;2.00;;;;;26.40;42.06;101554.47;5079790;28;45242;-73
2021/07/11 05:11:11;;;;;;;;;2.67;1.33;;;;;26.37;42.27;101552.19;5079824;28;45578;-73
2021/07/11 05:13:37;;;;;;;;;2.00;2.00;;;;;26.46;42.08;101568.09;5079591;28;46294;-73
2021/07/11 05:16:03;;;;;;;;;1.00;1.00;;;;;26.55;42.17;101582.09;5080301;28;45384;-73
2021/07/11 05:18:28;;;;;;;;;1.00;1.00;;;;;26.37;42.33;101554.84;5079982;28;45237;-73
2021/07/11 05:20:54;;;;;;;;;2.00;2.00;;;;;26.38;42.19;101553.84;5082752;28;45461;-73
2021/07/11 05:23:20;;;;;;;;;2.00;2.00;;;;;26.50;42.21;101577.34;5082346;28;48110;-73
2021/07/11 05:25:45;;;;;;;;;1.00;1.00;;;;;26.39;42.16;101557.31;5083804;28;45274;-73
2021/07/11 05:28:10;;;;;;;;;4.25;2.25;;;;;26.47;42.38;101567.88;5083690;28;45432;-73
2021/07/11 05:30:36;;;;;;;;;1.25;1.25;;;;;26.46;42.06;101565.41;5074382;28;45256;-73
2021/07/11 05:33:02;;;;;;;;;1.00;1.00;;;;;26.53;42.35;101574.28;5063123;28;45305;-73
2021/07/11 05:35:28;;;;;;;;;1.00;1.00;;;;;26.52;41.82;101572.63;5063006;28;45390;-73
2021/07/11 05:37:53;;;;;;;;;1.67;1.67;;;;;26.50;42.56;101566.66;5075176;28;45342;-73
2021/07/11 05:40:19;;;;;;;;;3.00;1.00;;;;;26.52;42.53;101564.63;5063642;28;45375;-73
2021/07/11 05:42:45;;;;;;;;;2.25;2.00;;;;;26.48;41.86;101560.69;5078782;28;45307;-73
2021/07/11 05:45:12;;;;;;;;;1.50;1.50;;;;;26.56;42.38;101568.56;5083576;28;45368;-73
2021/07/11 05:47:39;;;;;;;;;2.00;2.00;;;;;26.56;42.20;101571.25;5083475;28;45280;-73
2021/07/11 05:50:06;;;;;;;;;1.50;1.50;;;;;26.35;42.05;101534.72;5081419;28;45602;-73
2021/07/11 05:52:31;;;;;;;;;1.00;1.00;;;;;26.48;42.01;101558.03;5083059;28;46070;-73
2021/07/11 05:54:57;;;;;;;;;1.00;1.00;;;;;26.49;41.88;101565.84;5083355;28;45295;-73
2021/07/11 05:57:22;;;;;;;;;2.50;2.50;;;;;26.47;42.14;101556.38;5081739;28;45339;-73
2021/07/11 05:59:47;;;;;;;;;1.00;1.00;;;;;26.51;42.21;101563.81;5081761;28;45691;-73
2021/07/11 06:02:13;;;;;;;;;1.00;1.00;;;;;26.48;42.16;101558.03;5083035;28;45331;-73
2021/07/11 06:04:39;;;;;;;;;2.00;2.00;;;;;26.40;42.33;101542.97;5082824;28;45264;-73
2021/07/11 06:07:04;;;;;;;;;2.00;2.00;;;;;26.49;42.21;101557.84;5082815;28;45333;-73
2021/07/11 06:09:30;;;;;;;;;1.00;1.00;;;;;26.38;42.34;101545.00;5083384;28;45219;-73
2021/07/11 06:11:55;;;;;;;;;1.00;1.00;;;;;26.54;42.33;101567.94;5082877;28;45482;-73
2021/07/11 06:14:21;;;;;;;;;1.00;1.00;;;;;26.47;42.26;101565.22;5081684;28;45878;-73
2021/07/11 06:16:46;;;;;;;;;1.33;1.33;;;;;26.44;42.07;101554.91;5083021;28;45245;-73
2021/07/11 06:19:15;;;;;;;;;1.00;1.00;;;;;26.53;42.42;101571.63;5082788;28;45972;-73
2021/07/11 06:21:42;;;;;;;;;1.75;1.75;;;;;26.49;42.52;101570.38;5082747;27;45535;-73
2021/07/11 06:24:08;;;;;;;;;1.25;1.25;;;;;26.53;42.19;101582.28;5083086;27;45409;-73
2021/07/11 06:26:34;;;;;;;;;2.00;2.00;;;;;26.44;42.25;101562.13;5082745;27;45536;-73
2021/07/11 06:28:59;;;;;;;;;2.00;2.00;;;;;26.50;42.05;101574.69;5082871;28;45244;-73
2021/07/11 06:31:24;;;;;;;;;2.00;2.00;;;;;26.49;42.17;101568.50;5064344;28;46576;-73
2021/07/11 06:33:50;;;;;;;;;1.25;1.25;;;;;26.53;42.39;101574.28;5062268;28;45173;-73
2021/07/11 06:36:15;;;;;;;;;2.00;2.00;;;;;26.50;42.03;101570.16;5062863;28;45279;-73
2021/07/11 06:38:41;;;;;;;;;2.00;2.00;;;;;26.49;42.22;101567.69;5073466;27;45134;-72
2021/07/11 06:41:06;;;;;;;;;1.00;1.00;;;;;26.38;42.10;101542.34;5064301;28;46202;-73
2021/07/11 06:43:32;;;;;;;;;3.00;3.00;;;;;26.51;42.16;101560.31;5081203;28;45257;-73
2021/07/11 06:45:57;;;;;;;;;2.00;1.67;;;;;26.49;42.17;101557.84;5082716;28;45278;-73
2021/07/11 06:48:22;;;;;;;;;3.00;3.00;;;;;26.47;41.87;101551.88;5081047;28;45916;-73
2021/07/11 06:50:48;;;;;;;;;3.75;3.75;;;;;26.49;42.24;101560.50;5082329;28;45494;-73
2021/07/11 06:53:13;;;;;;;;;2.00;2.00;;;;;26.38;42.24;101534.34;5082018;28;45334;-73
2021/07/11 06:55:39;;;;;;;;;2.00;2.00;;;;;26.48;42.21;101545.53;5082550;28;45164;-73
2021/07/11 06:58:05;;;;;;;;;3.50;2.50;;;;;26.51;42.14;101555.81;5081941;28;45353;-73
2021/07/11 07:00:31;;;;;;;;;2.50;2.50;;;;;26.38;41.98;101526.34;5082062;28;45306;-73
2021/07/11 07:02:56;;;;;;;;;2.00;2.00;;;;;26.50;42.30;101545.31;5082347;28;45322;-73
2021/07/11 07:05:22;;;;;;;;;2.50;2.50;;;;;26.46;42.16;101539.56;5080216;28;45404;-73
2021/07/11 07:07:48;;;;;;;;;2.75;1.75;;;;;26.51;42.49;101550.47;5081977;28;45421;-73
2021/07/11 07:10:14;;;;;;;;;2.00;2.00;;;;;26.57;42.15;101559.53;5082004;28;46420;-72
2021/07/11 07:12:44;;;;;;;;;3.50;3.00;;;;;26.58;41.81;101563.88;5082104;28;45231;-72
2021/07/11 07:15:11;;;;;;;;;2.00;2.00;;;;;26.48;42.06;101542.88;5081975;28;45441;-72
2021/07/11 07:17:36;;;;;;;;;1.00;1.00;;;;;26.57;42.22;101562.19;5082102;28;45318;-72
2021/07/11 07:20:05;;;;;;;;;2.00;2.00;;;;;26.44;42.38;101538.91;5079687;27;46996;-72
2021/07/11 07:22:31;;;;;;;;;2.67;2.67;;;;;26.57;42.39;101561.41;5082328;28;45280;-73
2021/07/11 07:24:56;;;;;;;;;3.75;3.00;;;;;26.43;42.31;101529.25;5081886;28;45242;-73
2021/07/11 07:27:21;;;;;;;;;2.25;2.25;;;;;26.48;42.04;101523.34;5082106;28;45130;-73
2021/07/11 07:29:47;;;;;;;;;3.25;3.25;;;;;26.45;42.36;101529.06;5079403;28;45406;-73
2021/07/11 07:32:12;;;;;;;;;2.00;2.00;;;;;26.45;41.88;101523.72;5061647;28;45158;-73
2021/07/11 07:34:37;;;;;;;;;2.00;2.00;;;;;26.32;42.02;101508.41;5061002;27;45244;-72
2021/07/11 07:37:03;;;;;;;;;2.00;2.00;;;;;26.58;42.15;101547.03;5068408;28;45452;-73
2021/07/11 07:39:29;;;;;;;;;3.25;3.25;;;;;26.60;42.20;101550.31;5066069;27;46583;-73
2021/07/11 07:41:55;;;;;;;;;2.00;2.00;;;;;26.48;42.05;101526.84;5070331;28;45429;-72
2021/07/11 07:44:20;;;;;;;;;2.00;2.00;;;;;26.58;41.96;101539.84;5080240;28;45411;-72
2021/07/11 07:46:46;;;;;;;;;2.00;2.00;;;;;26.58;41.80;101539.84;5081584;28;45339;-72
2021/07/11 07:49:11;;;;;;;;;4.25;3.25;;;;;26.50;42.40;101526.66;5081061;28;45331;-72
2021/07/11 07:51:37;;;;;;;;;2.75;2.75;;;;;26.59;41.91;101538.00;5081780;28;45302;-72
2021/07/11 07:54:02;;;;;;;;;4.50;3.00;;;;;26.51;42.48;101531.81;5080321;28;45329;-72
2021/07/11 07:56:28;;;;;;;;;2.00;2.00;;;;;26.60;42.29;101542.31;5081541;28;45426;-72
2021/07/11 07:58:53;;;;;;;;;3.00;3.00;;;;;26.51;42.17;101542.47;5081736;28;45464;-73
2021/07/11 08:01:19;;;;;;;;;2.00;2.00;;;;;26.47;41.91;101538.53;5080276;28;45304;-72
2021/07/11 08:03:44;;;;;;;;;3.75;3.50;;;;;26.54;42.13;101543.94;5079852;28;45342;-72
2021/07/11 08:06:10;;;;;;;;;4.25;3.25;;;;;26.54;42.12;101543.09;5080188;28;45375;-72
2021/07/11 08:08:35;;;;;;;;;2.00;2.00;;;;;26.42;42.02;101524.91;5079448;28;47258;-72
2021/07/11 08:11:01;;;;;;;;;2.00;2.00;;;;;26.55;42.42;101548.22;5079928;28;45600;-71
2021/07/11 08:13:26;;;;;;;;;2.25;2.25;;;;;26.59;42.10;101552.19;5096858;27;45422;-71
2021/07/11 08:15:52;;;;;;;;;2.50;2.50;;;;;26.48;42.08;101532.19;5081384;28;45246;-72
2021/07/11 08:18:18;;;;;;;;;3.00;3.00;;;;;26.41;41.81;101517.94;5080805;28;45517;-72
2021/07/11 08:20:43;;;;;;;;;3.25;2.00;;;;;26.56;42.08;101547.22;5079588;28;45279;-71
2021/07/11 08:23:09;;;;;;;;;2.25;2.25;;;;;26.57;42.30;101551.53;5081140;28;45239;-72
2021/07/11 08:25:34;;;;;;;;;2.00;2.00;;;;;26.57;42.14;101543.53;5081026;28;45412;-72
2021/07/11 08:28:00;;;;;;;;;3.75;3.75;;;;;26.47;42.21;101521.69;5070563;28;45774;-72
2021/07/11 08:30:25;;;;;;;;;2.00;2.00;;;;;26.57;42.17;101535.50;5065104;28;45314;-72
2021/07/11 08:32:51;;;;;;;;;2.50;2.50;;;;;26.66;41.89;101552.22;5077136;28;45321;-72
2021/07/11 08:35:16;;;;;;;;;2.00;2.00;;;;;26.60;41.80;101534.31;5079033;28;45453;-70
2021/07/11 08:37:42;;;;;;;;;3.00;3.00;;;;;26.48;42.01;101518.84;5079858;28;46628;-71
2021/07/11 08:40:09;;;;;;;;;2.75;2.50;;;;;26.68;42.18;101549.34;5060298;28;45308;-71
2021/07/11 08:42:36;;;;;;;;;2.25;2.25;;;;;26.62;42.14;101541.09;5074780;28;45305;-71
2021/07/11 08:45:02;;;;;;;;;3.50;3.50;;;;;26.56;41.97;101533.88;5080724;27;45311;-71
2021/07/11 08:47:28;;;;;;;;;4.00;2.67;;;;;26.56;42.07;101528.56;5074542;28;46757;-71
2021/07/11 08:49:53;;;;;;;;;2.00;2.00;;;;;26.63;42.27;101541.94;5059993;28;45289;-71
2021/07/11 08:52:19;;;;;;;;;4.00;3.00;;;;;26.43;42.17;101502.56;5060263;28;45334;-72
2021/07/11 08:54:44;;;;;;;;;2.00;2.00;;;;;26.59;42.09;101530.00;5060311;28;45250;-71
2021/07/11 08:57:11;;;;;;;;;3.00;3.00;;;;;26.68;42.14;101544.00;5060090;28;46456;-71
2021/07/11 08:59:39;;;;;;;;;1.50;1.50;;;;;26.54;42.25;101514.59;5059819;28;45468;-72
2021/07/11 09:02:05;;;;;;;;;2.00;2.00;;;;;26.63;42.03;101528.59;5060203;28;45347;-71
2021/07/11 09:04:46;;;;;;;;;2.00;2.00;;;;;26.62;42.07;101529.63;5060027;28;45297;-72
2021/07/11 09:07:30;;;;;;;;;3.00;3.00;;;;;26.57;42.09;101527.50;5059535;28;46111;-71
2021/07/11 09:09:58;;;;;;;;;3.00;3.00;;;;;26.61;41.99;101536.78;5059738;28;45386;-72
2021/07/11 09:12:25;;;;;;;;;3.00;3.00;;;;;26.58;41.78;101523.00;5059959;28;45268;-72
2021/07/11 09:14:52;;;;;;;;;3.75;3.75;;;;;26.65;42.26;101544.41;5060498;28;45200;-71
2021/07/11 09:17:18;;;;;;;;;1.75;1.75;;;;;26.66;42.13;101543.38;5058237;28;46777;-72
2021/07/11 09:19:51;;;;;;;;;3.00;3.00;;;;;26.66;42.20;101538.03;5058347;28;45249;-71
2021/07/11 09:22:22;;;;;;;;;3.25;3.25;;;;;26.53;41.74;101520.94;5067663;28;45294;-71
2021/07/11 09:24:49;;;;;;;;;2.00;2.00;;;;;26.65;42.05;101542.53;5080122;28;45323;-72
2021/07/11 09:27:17;;;;;;;;;2.25;2.25;;;;;26.65;42.24;101541.75;5080001;28;45419;-72
2021/07/11 09:29:44;;;;;;;;;3.25;3.25;;;;;26.60;42.04;101532.47;5077958;27;45389;-72
2021/07/11 09:32:22;;;;;;;;;3.25;3.25;;;;;26.52;41.85;101519.25;5059943;28;45315;-72
2021/07/11 09:34:48;;;;;;;;;2.50;2.50;;;;;26.59;41.99;101528.16;5059352;28;45343;-72
2021/07/11 09:37:16;;;;;;;;;3.50;2.50;;;;;26.61;42.35;101530.63;5068243;28;45380;-72
2021/07/11 09:39:47;;;;;;;;;3.25;2.75;;;;;26.49;41.92;101520.47;5062488;27;45354;-71
2021/07/11 09:42:23;;;;;;;;;3.25;3.25;;;;;26.66;42.08;101546.88;5070624;28;45272;-72
2021/07/11 09:44:48;;;;;;;;;3.00;3.00;;;;;26.46;41.99;101512.06;5079746;28;45445;-72
2021/07/11 09:47:22;;;;;;;;;4.00;3.75;;;;;26.67;42.02;101555.72;5079554;28;45365;-72
2021/07/11 09:49:56;;;;;;;;;4.75;3.00;;;;;26.67;42.01;101550.38;5095294;27;45641;-72
2021/07/11 09:52:23;;;;;;;;;4.00;4.00;;;;;26.66;41.89;101559.41;5078417;28;45390;-72
2021/07/11 09:55:11;;;;;;;;;3.00;3.00;;;;;26.63;41.95;101547.25;5078515;28;45382;-72
2021/07/11 09:57:39;;;;;;;;;3.25;2.25;;;;;26.57;41.92;101546.19;5078263;28;47263;-72
2021/07/11 10:00:15;;;;;;;;;2.75;2.75;;;;;26.67;42.04;101563.72;5079763;28;45287;-72
2021/07/11 10:02:42;;;;;;;;;3.25;3.25;;;;;26.67;42.02;101561.88;5079725;28;45269;-72
2021/07/11 10:05:09;;;;;;;;;3.50;2.75;;;;;26.66;42.23;101562.91;5079481;28;45294;-72
2021/07/11 10:07:36;;;;;;;;;3.00;3.00;;;;;26.51;42.14;101544.31;5081768;28;46227;-72
2021/07/11 10:10:04;;;;;;;;;4.00;4.00;;;;;26.56;42.31;101552.56;5082985;27;45228;-72
2021/07/11 10:12:30;;;;;;;;;2.00;2.00;;;;;26.53;42.19;101547.59;5083166;28;45453;-72
2021/07/11 10:14:55;;;;;;;;;4.50;4.50;;;;;26.50;42.13;101542.66;5082946;28;45378;-72
2021/07/11 10:17:21;;;;;;;;;4.25;4.25;;;;;26.62;42.10;101553.63;5083046;28;45335;-72
2021/07/11 10:19:49;;;;;;;;;3.25;3.00;;;;;26.50;41.96;101540.00;5073096;28;45453;-72
2021/07/11 10:22:16;;;;;;;;;3.00;3.00;;;;;26.65;42.25;101560.44;5062864;28;45310;-72
2021/07/11 10:24:45;;;;;;;;;3.50;3.50;;;;;26.61;41.91;101550.13;5060828;28;45668;-72
2021/07/11 10:27:17;;;;;;;;;2.00;2.00;;;;;26.65;41.85;101560.44;5061784;28;45526;-72
2021/07/11 10:29:47;;;;;;;;;2.75;2.75;;;;;26.56;41.95;101555.22;5064952;28;45177;-72
2021/07/11 10:32:30;;;;;;;;;2.00;2.00;;;;;26.62;42.02;101567.78;5062723;28;45398;-72
2021/07/11 10:35:10;;;;;;;;;2.00;2.00;;;;;26.63;42.11;101560.59;5061968;28;45415;-72
2021/07/11 10:37:42;;;;;;;;;4.25;4.25;;;;;26.62;42.10;101550.97;5073563;28;45355;-72
2021/07/11 10:40:10;;;;;;;;;3.00;3.00;;;;;26.56;41.87;101546.41;5062211;28;45397;-72
2021/07/11 10:42:36;;;;;;;;;4.50;3.00;;;;;26.57;42.43;101556.06;5076840;28;45178;-72
2021/07/11 10:45:08;;;;;;;;;3.00;3.00;;;;;26.55;42.10;101547.41;5082398;28;45290;-72
2021/07/11 10:47:33;;;;;;;;;2.00;1.75;;;;;26.51;42.31;101536.31;5082341;28;46420;-72
2021/07/11 10:49:59;;;;;;;;;2.00;2.00;;;;;26.56;42.01;101549.91;5080911;28;45308;-72
2021/07/11 10:52:26;;;;;;;;;3.00;3.00;;;;;26.63;41.96;101555.28;5082572;28;45291;-72
2021/07/11 10:54:55;;;;;;;;;5.25;4.00;;;;;26.63;42.34;101561.44;5082517;28;45710;-72
2021/07/11 10:57:30;;;;;;;;;5.00;4.00;;;;;26.60;42.11;101550.31;5077256;28;46542;-72
2021/07/11 11:00:09;;;;;;;;;2.50;2.00;;;;;26.63;41.86;101555.28;5061896;28;45427;-72
2021/07/11 11:02:34;;;;;;;;;3.00;3.00;;;;;26.57;41.72;101540.06;5066698;28;45329;-72
2021/07/11 11:05:00;;;;;;;;;4.00;4.00;;;;;26.62;41.97;101542.97;5069111;28;45614;-72
2021/07/11 11:07:38;;;;;;;;;3.75;3.75;;;;;26.53;42.13;101534.25;5061603;28;46198;-72
2021/07/11 11:10:04;;;;;;;;;2.25;2.25;;;;;26.40;42.01;101502.94;5061863;28;45276;-72
2021/07/11 11:12:30;;;;;;;;;2.50;2.50;;;;;26.50;42.00;101513.31;5062051;28;45252;-72
2021/07/11 11:15:02;;;;;;;;;6.00;4.00;;;;;26.64;42.11;101535.59;5061804;28;45390;-72
2021/07/11 11:17:29;;;;;;;;;4.00;4.00;;;;;26.63;42.18;101529.41;5061098;28;46158;-72
2021/07/11 11:19:54;;;;;;;;;4.00;4.00;;;;;26.64;42.34;101530.25;5060792;28;45467;-71
2021/07/11 11:22:20;;;;;;;;;2.75;2.75;;;;;26.49;42.10;101514.34;5061286;28;45450;-72
2021/07/11 11:24:45;;;;;;;;;2.50;1.75;;;;;26.54;42.26;101508.41;5061467;28;45379;-72